Hayase Maru — JD2583 — position and weather

sailwx.info

Track history (hours):
 
Tides and Currents Weather Stations Pressure Air Temp Water Temp Dewpoint Dewpoint Depression Visibility Wind Speed Wind Dir Waves Ship Positions

Hayase Maru

Last reported at 2014-Aug-19 13:33 UTC. Time now 2014-Aug-22 23:41 UTC.
Position N 34°06' E 134°60'.

Length 73 m; draft 4.1 m.

Type: Ship. MMSI: 431000395.

Date/timePositionNaut miles runAvg speedWind from/ knotsBaromVisibWave heightAir tempDewpointWater temp
2014-Aug-19 13:33N 34°06' E 134°60'1211.1
2014-Aug-19 12:31N 34°18' E 134°59'1110.8
2014-Aug-19 11:31N 34°28' E 135°01'9 7.8
2014-Aug-19 10:25N 34°37' E 134°58'910.4
2014-Aug-19 09:33N 34°40' E 134°48'3 0.1
2014-Aug-18 08:32N 34°39' E 134°51'1212.7
2014-Aug-18 07:33N 34°36' E 135°06'1211.6
2014-Aug-18 06:33N 34°38' E 135°20'5 4.6
2014-Aug-18 05:28N 34°40' E 135°26'0 0.0
2014-Aug-18 04:22N 34°40' E 135°26'0 0.0
2014-Aug-18 03:22N 34°40' E 135°26'0 0.0
2014-Aug-18 02:16N 34°40' E 135°26'0 0.0
2014-Aug-18 01:33N 34°40' E 135°26'4 3.2
2014-Aug-18 00:19N 34°37' E 135°22'0 0.0
2014-Aug-17 18:07N 34°37' E 135°22'0 0.0
2014-Aug-17 17:31N 34°37' E 135°22'6 6.3
2014-Aug-17 16:33N 34°36' E 135°15'1010.2
2014-Aug-17 15:33N 34°36' E 135°03'  
2014-Aug-14 11:28N 34°39' E 134°51'1112.5
2014-Aug-14 10:33N 34°36' E 135°04'1211.5
2014-Aug-14 09:33N 34°36' E 135°18'8 5.8
2014-Aug-14 08:15N 34°35' E 135°27'0 0.0
2014-Aug-14 07:33N 34°35' E 135°27'0 0.0
2014-Aug-13 06:33N 34°35' E 135°27'8 8.1
2014-Aug-13 05:33N 34°32' E 135°18'1010.3
2014-Aug-13 04:33N 34°25' E 135°10'10 9.4
2014-Aug-13 03:28N 34°16' E 135°03'207 8.6
2014-Aug-12 03:17N 34°47' E 139°12'2910.5
2014-Aug-12 00:33N 35°06' E 139°39'1010.5
2014-Aug-11 23:33N 35°14' E 139°46'1110.7
2014-Aug-11 22:33N 35°25' E 139°43'5 4.8
2014-Aug-11 21:31N 35°23' E 139°49'0 0.0
2014-Aug-11 20:31N 35°23' E 139°49'0 0.0
2014-Aug-11 19:33N 35°23' E 139°49'0 0.0
2014-Aug-11 18:33N 35°23' E 139°49'0 0.0
2014-Aug-11 17:33N 35°23' E 139°49'0 0.0
2014-Aug-11 16:33N 35°23' E 139°49'0 0.0
2014-Aug-11 15:33N 35°23' E 139°49'0 0.0
2014-Aug-11 14:33N 35°23' E 139°49'0 0.0
2014-Aug-11 13:33N 35°23' E 139°49'0 0.0
2014-Aug-11 12:34N 35°23' E 139°49'0 0.0
2014-Aug-11 11:32N 35°23' E 139°49'0 0.0
2014-Aug-11 10:33N 35°23' E 139°49'0 0.0
2014-Aug-11 09:33N 35°23' E 139°49'0 0.0
2014-Aug-11 08:32N 35°23' E 139°49'0 0.0
2014-Aug-11 07:33N 35°23' E 139°49'0 0.0
2014-Aug-11 06:32N 35°23' E 139°49'0 0.0
2014-Aug-11 05:33N 35°23' E 139°49'0 0.0
2014-Aug-11 04:33N 35°23' E 139°49'0 0.0
2014-Aug-11 03:32N 35°23' E 139°49'0 0.0
2014-Aug-11 02:32N 35°23' E 139°49'0 0.0
2014-Aug-11 01:33N 35°23' E 139°49'0 0.0
2014-Aug-11 00:34N 35°23' E 139°49'0 0.0
2014-Aug-10 23:33N 35°23' E 139°49'0 0.0
2014-Aug-10 22:32N 35°23' E 139°49'0 0.0
2014-Aug-10 21:33N 35°23' E 139°49'0 0.0
2014-Aug-10 20:31N 35°23' E 139°49'0 0.0
2014-Aug-10 19:33N 35°23' E 139°49'0 0.0
2014-Aug-10 18:33N 35°23' E 139°49'0 0.0
2014-Aug-10 17:33N 35°23' E 139°49'0 0.0
2014-Aug-10 16:33N 35°23' E 139°49'0 0.0
2014-Aug-10 15:33N 35°23' E 139°49'0 0.0
2014-Aug-10 14:32N 35°23' E 139°49'0 0.0
2014-Aug-10 13:33N 35°23' E 139°49'0 0.0
2014-Aug-10 12:33N 35°23' E 139°49'0 0.0
2014-Aug-10 11:32N 35°23' E 139°49'0 0.0
2014-Aug-10 10:32N 35°23' E 139°49'0 0.0
2014-Aug-10 09:34N 35°23' E 139°49'0 0.0
2014-Aug-10 08:32N 35°23' E 139°49'0 0.0
2014-Aug-10 07:32N 35°23' E 139°49'0 0.0
2014-Aug-10 06:33N 35°23' E 139°49'0 0.0
2014-Aug-10 05:33N 35°23' E 139°49'0 0.0
2014-Aug-10 04:28N 35°23' E 139°49'0 0.0
2014-Aug-10 03:31N 35°23' E 139°49'0 0.0
2014-Aug-10 02:31N 35°23' E 139°49'0 0.0
2014-Aug-10 01:31N 35°23' E 139°49'0 0.0
2014-Aug-10 00:31N 35°23' E 139°49'0 0.1
2014-Aug-09 23:31N 35°22' E 139°49'0 0.0
2014-Aug-09 22:31N 35°22' E 139°49'0 0.0
2014-Aug-09 21:31N 35°22' E 139°49'0 0.0
2014-Aug-09 20:31N 35°22' E 139°49'0 0.0
2014-Aug-09 19:28N 35°22' E 139°49'0 0.0
2014-Aug-09 18:31N 35°22' E 139°49'0 0.1
2014-Aug-09 17:31N 35°23' E 139°49'0 0.5
2014-Aug-09 16:33N 35°22' E 139°49'1 1.4
2014-Aug-09 15:32N 35°22' E 139°51'0 0.0
2014-Aug-09 14:32N 35°22' E 139°51'  
Track history (hours):
 
Tides and Currents Weather Stations Pressure Air Temp Water Temp Dewpoint Dewpoint Depression Visibility Wind Speed Wind Dir Waves Ship Positions

Hayase Maru

Last reported at 2014-Aug-19 13:33 UTC. Time now 2014-Aug-22 23:41 UTC.
Position N 34°06' E 134°60'.

Length 73 m; draft 4.1 m.

Type: Ship. MMSI: 431000395.

Date/timePositionNaut miles runAvg speedWind from/ knotsBaromVisibWave heightAir tempDewpointWater temp
2014-Aug-19 13:33N 34°06' E 134°60'1211.1
2014-Aug-19 12:31N 34°18' E 134°59'1110.8
2014-Aug-19 11:31N 34°28' E 135°01'9 7.8
2014-Aug-19 10:25N 34°37' E 134°58'910.4
2014-Aug-19 09:33N 34°40' E 134°48'3 0.1
2014-Aug-18 08:32N 34°39' E 134°51'1212.7
2014-Aug-18 07:33N 34°36' E 135°06'1211.6
2014-Aug-18 06:33N 34°38' E 135°20'5 4.6
2014-Aug-18 05:28N 34°40' E 135°26'0 0.0
2014-Aug-18 04:22N 34°40' E 135°26'0 0.0
2014-Aug-18 03:22N 34°40' E 135°26'0 0.0
2014-Aug-18 02:16N 34°40' E 135°26'0 0.0
2014-Aug-18 01:33N 34°40' E 135°26'4 3.2
2014-Aug-18 00:19N 34°37' E 135°22'0 0.0
2014-Aug-17 18:07N 34°37' E 135°22'0 0.0
2014-Aug-17 17:31N 34°37' E 135°22'6 6.3
2014-Aug-17 16:33N 34°36' E 135°15'1010.2
2014-Aug-17 15:33N 34°36' E 135°03'  
2014-Aug-14 11:28N 34°39' E 134°51'1112.5
2014-Aug-14 10:33N 34°36' E 135°04'1211.5
2014-Aug-14 09:33N 34°36' E 135°18'8 5.8
2014-Aug-14 08:15N 34°35' E 135°27'0 0.0
2014-Aug-14 07:33N 34°35' E 135°27'0 0.0
2014-Aug-13 06:33N 34°35' E 135°27'8 8.1
2014-Aug-13 05:33N 34°32' E 135°18'1010.3
2014-Aug-13 04:33N 34°25' E 135°10'10 9.4
2014-Aug-13 03:28N 34°16' E 135°03'207 8.6
2014-Aug-12 03:17N 34°47' E 139°12'2910.5
2014-Aug-12 00:33N 35°06' E 139°39'1010.5
2014-Aug-11 23:33N 35°14' E 139°46'1110.7
2014-Aug-11 22:33N 35°25' E 139°43'5 4.8
2014-Aug-11 21:31N 35°23' E 139°49'0 0.0
2014-Aug-11 20:31N 35°23' E 139°49'0 0.0
2014-Aug-11 19:33N 35°23' E 139°49'0 0.0
2014-Aug-11 18:33N 35°23' E 139°49'0 0.0
2014-Aug-11 17:33N 35°23' E 139°49'0 0.0
2014-Aug-11 16:33N 35°23' E 139°49'0 0.0
2014-Aug-11 15:33N 35°23' E 139°49'0 0.0
2014-Aug-11 14:33N 35°23' E 139°49'0 0.0
2014-Aug-11 13:33N 35°23' E 139°49'0 0.0
2014-Aug-11 12:34N 35°23' E 139°49'0 0.0
2014-Aug-11 11:32N 35°23' E 139°49'0 0.0
2014-Aug-11 10:33N 35°23' E 139°49'0 0.0
2014-Aug-11 09:33N 35°23' E 139°49'0 0.0
2014-Aug-11 08:32N 35°23' E 139°49'0 0.0
2014-Aug-11 07:33N 35°23' E 139°49'0 0.0
2014-Aug-11 06:32N 35°23' E 139°49'0 0.0
2014-Aug-11 05:33N 35°23' E 139°49'0 0.0
2014-Aug-11 04:33N 35°23' E 139°49'0 0.0
2014-Aug-11 03:32N 35°23' E 139°49'0 0.0
2014-Aug-11 02:32N 35°23' E 139°49'0 0.0
2014-Aug-11 01:33N 35°23' E 139°49'0 0.0
2014-Aug-11 00:34N 35°23' E 139°49'0 0.0
2014-Aug-10 23:33N 35°23' E 139°49'0 0.0
2014-Aug-10 22:32N 35°23' E 139°49'0 0.0
2014-Aug-10 21:33N 35°23' E 139°49'0 0.0
2014-Aug-10 20:31N 35°23' E 139°49'0 0.0
2014-Aug-10 19:33N 35°23' E 139°49'0 0.0
2014-Aug-10 18:33N 35°23' E 139°49'0 0.0
2014-Aug-10 17:33N 35°23' E 139°49'0 0.0
2014-Aug-10 16:33N 35°23' E 139°49'0 0.0
2014-Aug-10 15:33N 35°23' E 139°49'0 0.0
2014-Aug-10 14:32N 35°23' E 139°49'0 0.0
2014-Aug-10 13:33N 35°23' E 139°49'0 0.0
2014-Aug-10 12:33N 35°23' E 139°49'0 0.0
2014-Aug-10 11:32N 35°23' E 139°49'0 0.0
2014-Aug-10 10:32N 35°23' E 139°49'0 0.0
2014-Aug-10 09:34N 35°23' E 139°49'0 0.0
2014-Aug-10 08:32N 35°23' E 139°49'0 0.0
2014-Aug-10 07:32N 35°23' E 139°49'0 0.0
2014-Aug-10 06:33N 35°23' E 139°49'0 0.0
2014-Aug-10 05:33N 35°23' E 139°49'0 0.0
2014-Aug-10 04:28N 35°23' E 139°49'0 0.0
2014-Aug-10 03:31N 35°23' E 139°49'0 0.0
2014-Aug-10 02:31N 35°23' E 139°49'0 0.0
2014-Aug-10 01:31N 35°23' E 139°49'0 0.0
2014-Aug-10 00:31N 35°23' E 139°49'0 0.1
2014-Aug-09 23:31N 35°22' E 139°49'0 0.0
2014-Aug-09 22:31N 35°22' E 139°49'0 0.0
2014-Aug-09 21:31N 35°22' E 139°49'0 0.0
2014-Aug-09 20:31N 35°22' E 139°49'0 0.0
2014-Aug-09 19:28N 35°22' E 139°49'0 0.0
2014-Aug-09 18:31N 35°22' E 139°49'0 0.1
2014-Aug-09 17:31N 35°23' E 139°49'0 0.5
2014-Aug-09 16:33N 35°22' E 139°49'1 1.4
2014-Aug-09 15:32N 35°22' E 139°51'0 0.0
2014-Aug-09 14:32N 35°22' E 139°51'  

Dump ship's entire track history